createdAt,value
2023-05-04T00:02:27.573Z,101637.72
2023-05-04T00:04:55.028Z,101631.41
2023-05-04T00:07:22.461Z,101640.41
2023-05-04T00:09:50.782Z,101635.94
2023-05-04T00:12:18.414Z,101640.41
2023-05-04T00:14:45.669Z,101633.34
2023-05-04T00:17:13.110Z,101630.66
2023-05-04T00:19:42.169Z,101631.63
2023-05-04T00:22:09.710Z,101636.88
2023-05-04T00:24:36.953Z,101636.03
2023-05-04T00:27:04.310Z,101627.13
2023-05-04T00:29:32.487Z,101626.13
2023-05-04T00:31:59.793Z,101622.59
2023-05-04T00:34:27.138Z,101626.25
2023-05-04T00:36:54.554Z,101623.56
2023-05-04T00:39:22.060Z,101621.88
2023-05-04T00:41:50.028Z,101622.72
2023-05-04T00:44:17.703Z,101620.88
2023-05-04T00:46:45.038Z,101623.69
2023-05-04T00:49:13.344Z,101623.69
2023-05-04T00:51:41.232Z,101624.56
2023-05-04T00:54:08.520Z,101624.66
2023-05-04T00:56:42.160Z,101623.69
2023-05-04T00:59:15.992Z,101615.63
2023-05-04T01:01:43.310Z,101614.75
2023-05-04T01:04:11.298Z,101616.59
2023-05-04T01:07:02.565Z,101610.34
2023-05-04T01:09:37.943Z,101611.22
2023-05-04T01:12:17.351Z,101607.66
2023-05-04T01:14:46.669Z,101604.13
2023-05-04T01:17:14.237Z,101605.97
2023-05-04T01:19:41.612Z,101604.97
2023-05-04T01:22:09.045Z,101610.34
2023-05-04T01:24:36.430Z,101607.78
2023-05-04T01:27:11.445Z,101610.47
2023-05-04T01:29:52.449Z,101607.78
2023-05-04T01:32:21.655Z,101602.53
2023-05-04T01:34:49.176Z,101600.72
2023-05-04T01:37:18.256Z,101598.03
2023-05-04T01:39:46.305Z,101605.22
2023-05-04T01:42:13.581Z,101603.41
2023-05-04T01:44:41.532Z,101602.53
2023-05-04T01:47:08.921Z,101608.78
2023-05-04T01:49:36.165Z,101609.72
2023-05-04T01:52:04.063Z,101613.28
2023-05-04T01:54:31.513Z,101609.72
2023-05-04T01:56:58.803Z,101616.09
2023-05-04T01:59:28.663Z,101608.88
2023-05-04T02:01:56.364Z,101616.94
2023-05-04T02:04:23.771Z,101612.53
2023-05-04T02:06:51.220Z,101608.88
2023-05-04T02:09:18.465Z,101614.25
2023-05-04T02:11:45.752Z,101617.94
2023-05-04T02:14:13.247Z,101617.94
2023-05-04T02:16:40.658Z,101617.06
2023-05-04T02:19:08.117Z,101617.94
2023-05-04T02:21:36.006Z,101623.28
2023-05-04T02:24:06.270Z,101622.44
2023-05-04T02:26:33.720Z,101616.22
2023-05-04T02:29:02.991Z,101621.59
2023-05-04T02:31:30.399Z,101616.22
2023-05-04T02:33:57.829Z,101619.84
2023-05-04T02:36:25.187Z,101620.75
2023-05-04T02:38:52.544Z,101618.06
2023-05-04T02:41:19.787Z,101624.28
2023-05-04T02:43:47.106Z,101612.78
2023-05-04T02:46:14.469Z,101621.59
2023-05-04T02:48:41.979Z,101609.09
2023-05-04T02:51:09.290Z,101612.78
2023-05-04T02:53:36.588Z,101613.63
2023-05-04T02:56:03.992Z,101623.53
2023-05-04T02:58:31.341Z,101619.00
2023-05-04T03:00:58.659Z,101615.47
2023-05-04T03:03:26.231Z,101623.44
2023-05-04T03:05:54.018Z,101616.44
2023-05-04T03:08:21.526Z,101622.66
2023-05-04T03:10:48.865Z,101616.44
2023-05-04T03:13:17.362Z,101620.84
2023-05-04T03:15:44.742Z,101619.97
2023-05-04T03:18:12.429Z,101616.44
2023-05-04T03:20:39.929Z,101619.13
2023-05-04T03:23:09.088Z,101629.88
2023-05-04T03:25:36.902Z,101626.34
2023-05-04T03:28:05.727Z,101638.94
2023-05-04T03:30:33.013Z,101625.34
2023-05-04T03:33:02.628Z,101620.97
2023-05-04T03:35:30.516Z,101628.91
2023-05-04T03:37:58.315Z,101625.22
2023-05-04T03:40:25.622Z,101622.66
2023-05-04T03:42:54.683Z,101624.38
2023-05-04T03:45:23.758Z,101624.38
2023-05-04T03:47:51.866Z,101619.97
2023-05-04T03:50:19.929Z,101627.19
2023-05-04T03:52:49.818Z,101625.50
2023-05-04T03:55:19.768Z,101628.19
2023-05-04T03:57:50.105Z,101630.84
2023-05-04T04:00:17.853Z,101623.75
2023-05-04T04:02:55.965Z,101631.81
2023-05-04T04:05:23.287Z,101634.50
2023-05-04T04:07:52.676Z,101627.41
2023-05-04T04:10:20.687Z,101636.34
2023-05-04T04:12:48.098Z,101627.41
2023-05-04T04:15:15.429Z,101642.56
2023-05-04T04:17:42.699Z,101635.47
2023-05-04T04:20:10.621Z,101642.69
2023-05-04T04:22:37.823Z,101640.84
2023-05-04T04:25:05.434Z,101642.69
2023-05-04T04:27:32.686Z,101641.84
2023-05-04T04:29:59.887Z,101644.53
2023-05-04T04:32:27.165Z,101644.53
2023-05-04T04:34:54.447Z,101652.59
2023-05-04T04:37:22.458Z,101644.66
2023-05-04T04:39:49.710Z,101650.88
2023-05-04T04:42:17.449Z,101648.19
2023-05-04T04:44:45.749Z,101648.19
2023-05-04T04:47:13.225Z,101652.59
2023-05-04T04:49:40.508Z,101655.41
2023-05-04T04:52:07.716Z,101658.09
2023-05-04T04:54:35.130Z,101657.19
2023-05-04T04:57:02.449Z,101656.25
2023-05-04T04:59:30.047Z,101659.88
2023-05-04T05:01:57.882Z,101657.19
2023-05-04T05:04:25.313Z,101661.72
2023-05-04T05:06:54.180Z,101659.88
2023-05-04T05:09:21.537Z,101667.09
2023-05-04T05:11:48.833Z,101663.56
2023-05-04T05:14:16.125Z,101666.25
2023-05-04T05:16:43.498Z,101669.78
2023-05-04T05:19:10.830Z,101661.72
2023-05-04T05:21:38.389Z,101667.09
2023-05-04T05:24:06.408Z,101668.06
2023-05-04T05:26:33.995Z,101661.72
2023-05-04T05:29:01.373Z,101675.16
2023-05-04T05:31:28.766Z,101666.25
2023-05-04T05:33:56.168Z,101668.94
2023-05-04T05:36:23.446Z,101660.88
2023-05-04T05:38:51.011Z,101656.47
2023-05-04T05:41:18.401Z,101663.56
2023-05-04T05:43:45.669Z,101657.34
2023-05-04T05:46:13.618Z,101659.16
2023-05-04T05:48:41.422Z,101654.66
2023-05-04T05:51:08.638Z,101658.19
2023-05-04T05:53:35.965Z,101651.09
2023-05-04T05:56:03.264Z,101657.34
2023-05-04T05:58:30.549Z,101664.53
2023-05-04T06:00:57.776Z,101662.56
2023-05-04T06:03:25.231Z,101653.66
2023-05-04T06:05:52.616Z,101664.41
2023-05-04T06:08:19.898Z,101658.19
2023-05-04T06:10:48.033Z,101661.72
2023-05-04T06:13:15.380Z,101668.84
2023-05-04T06:15:42.749Z,101665.25
2023-05-04T06:18:10.128Z,101666.16
2023-05-04T06:20:37.615Z,101672.38
2023-05-04T06:23:07.722Z,101663.34
2023-05-04T06:25:35.008Z,101657.97
2023-05-04T06:28:02.500Z,101656.25
2023-05-04T06:30:29.820Z,101657.97
2023-05-04T06:32:57.210Z,101656.25
2023-05-04T06:35:24.612Z,101651.72
2023-05-04T06:37:52.445Z,101655.28
2023-05-04T06:40:19.888Z,101655.28
2023-05-04T06:42:47.154Z,101649.91
2023-05-04T06:45:14.459Z,101656.13
2023-05-04T06:47:41.837Z,101661.50
2023-05-04T06:50:10.897Z,101661.50
2023-05-04T06:52:39.955Z,101659.66
2023-05-04T06:55:07.948Z,101659.66
2023-05-04T06:57:35.208Z,101662.47
2023-05-04T07:00:04.558Z,101667.22
2023-05-04T07:02:32.091Z,101661.22
2023-05-04T07:04:59.400Z,101664.25
2023-05-04T07:07:27.191Z,101662.78
2023-05-04T07:09:54.455Z,101658.25
2023-05-04T07:12:21.709Z,101666.19
2023-05-04T07:14:49.058Z,101659.88
2023-05-04T07:17:16.298Z,101664.25
2023-05-04T07:19:43.499Z,101665.97
2023-05-04T07:22:10.782Z,101662.41
2023-05-04T07:24:37.992Z,101664.03
2023-05-04T07:27:05.311Z,101666.59
2023-05-04T07:29:32.593Z,101660.16
2023-05-04T07:31:59.922Z,101657.97
2023-05-04T07:34:37.977Z,101664.94
2023-05-04T07:37:12.841Z,101663.13
2023-05-04T07:39:40.088Z,101661.06
2023-05-04T07:42:08.349Z,101657.25
2023-05-04T07:44:35.623Z,101659.59
2023-05-04T07:47:03.448Z,101663.13
2023-05-04T07:49:30.948Z,101664.75
2023-05-04T07:51:58.354Z,101661.94
2023-05-04T07:54:25.964Z,101656.44
2023-05-04T07:56:53.283Z,101658.03
2023-05-04T07:59:21.085Z,101657.06
2023-05-04T08:01:48.685Z,101656.81
2023-05-04T08:04:16.373Z,101651.22
2023-05-04T08:06:43.864Z,101659.19
2023-05-04T08:09:11.125Z,101655.38
2023-05-04T08:11:40.205Z,101656.13
2023-05-04T08:14:07.588Z,101661.50
2023-05-04T08:16:34.882Z,101659.56
2023-05-04T08:19:02.226Z,101664.84
2023-05-04T08:21:29.666Z,101656.75
2023-05-04T08:23:57.103Z,101660.31
2023-05-04T08:26:24.807Z,101662.88
2023-05-04T08:28:52.149Z,101658.34
2023-05-04T08:31:19.442Z,101665.47
2023-05-04T08:33:46.686Z,101653.81
2023-05-04T08:36:13.911Z,101657.38
2023-05-04T08:38:41.191Z,101660.94
2023-05-04T08:41:09.039Z,101664.47
2023-05-04T08:43:37.507Z,101665.31
2023-05-04T08:46:06.594Z,101667.03
2023-05-04T08:48:34.881Z,101672.31
2023-05-04T08:51:04.405Z,101675.00
2023-05-04T08:53:35.326Z,101676.72
2023-05-04T08:56:07.678Z,101671.31
2023-05-04T08:58:43.947Z,101675.72
2023-05-04T09:01:12.304Z,101676.56
2023-05-04T09:03:40.410Z,101666.66
2023-05-04T09:06:09.461Z,101674.66
2023-05-04T09:08:36.857Z,101673.78
2023-05-04T09:11:04.763Z,101675.50
2023-05-04T09:13:32.257Z,101668.28
2023-05-04T09:15:59.824Z,101664.59
2023-05-04T09:18:37.745Z,101669.13
2023-05-04T09:21:05.321Z,101668.16
2023-05-04T09:23:33.450Z,101653.84
2023-05-04T09:26:01.054Z,101656.53
2023-05-04T09:28:36.720Z,101650.16
2023-05-04T09:31:04.950Z,101649.31
2023-05-04T09:33:32.296Z,101656.44
2023-05-04T09:36:14.380Z,101652.00
2023-05-04T09:38:41.791Z,101639.41
2023-05-04T09:41:09.402Z,101642.09
2023-05-04T09:43:41.787Z,101642.09
2023-05-04T09:46:19.545Z,101635.88
2023-05-04T09:48:55.217Z,101639.31
2023-05-04T09:51:27.417Z,101635.78
2023-05-04T09:53:54.767Z,101638.47
2023-05-04T09:56:51.542Z,101636.63
2023-05-04T09:59:20.898Z,101626.84
2023-05-04T10:01:48.634Z,101629.53
2023-05-04T10:04:16.001Z,101626.84
2023-05-04T10:06:44.554Z,101621.47
2023-05-04T10:09:13.132Z,101622.31
2023-05-04T10:11:40.829Z,101626.84
2023-05-04T10:14:08.547Z,101620.50
2023-05-04T10:16:52.460Z,101613.28
2023-05-04T10:20:11.799Z,101613.41
2023-05-04T10:22:59.824Z,101616.09
2023-05-04T10:25:36.148Z,101616.09
2023-05-04T10:28:40.413Z,101612.41
2023-05-04T10:31:07.835Z,101617.81
2023-05-04T10:33:42.644Z,101616.94
2023-05-04T10:36:11.711Z,101616.09
2023-05-04T10:38:40.531Z,101618.78
2023-05-04T10:41:34.006Z,101614.25
2023-05-04T10:44:05.278Z,101615.22
2023-05-04T10:46:32.892Z,101608.88
2023-05-04T10:49:00.299Z,101603.50
2023-05-04T10:51:35.677Z,101599.97
2023-05-04T10:54:18.151Z,101602.50
2023-05-04T10:56:45.477Z,101590.06
2023-05-04T10:59:14.896Z,101600.81
2023-05-04T11:01:45.280Z,101590.91
2023-05-04T11:04:20.712Z,101597.97
2023-05-04T11:07:08.677Z,101588.22
2023-05-04T11:09:41.632Z,101593.59
2023-05-04T11:12:14.133Z,101593.59
2023-05-04T11:14:43.117Z,101589.19
2023-05-04T11:19:50.871Z,101579.28
2023-05-04T11:22:18.827Z,101588.22
2023-05-04T11:24:48.568Z,101582.06
2023-05-04T11:27:26.388Z,101582.94
2023-05-04T11:30:01.006Z,101587.47
2023-05-04T11:32:35.093Z,101580.25
2023-05-04T11:35:04.262Z,101583.81
2023-05-04T11:37:39.326Z,101581.13
2023-05-04T11:40:18.225Z,101573.91
2023-05-04T11:42:46.679Z,101567.69
2023-05-04T11:45:18.129Z,101570.38
2023-05-04T11:47:47.481Z,101568.53
2023-05-04T11:50:17.891Z,101567.69
2023-05-04T11:52:45.435Z,101569.38
2023-05-04T11:55:26.352Z,101556.03
2023-05-04T11:58:05.063Z,101557.88
2023-05-04T12:00:43.906Z,101559.59
2023-05-04T12:03:14.063Z,101560.56
2023-05-04T12:05:51.681Z,101552.50
2023-05-04T12:08:26.805Z,101547.13
2023-05-04T12:11:16.424Z,101548.09
2023-05-04T12:13:45.514Z,101548.94
2023-05-04T12:16:16.837Z,101548.94
2023-05-04T12:18:46.184Z,101548.94
2023-05-04T12:21:17.730Z,101545.41
2023-05-04T12:23:45.888Z,101544.44
2023-05-04T12:26:14.266Z,101541.75
2023-05-04T12:28:42.543Z,101537.22
2023-05-04T12:31:10.282Z,101538.19
2023-05-04T12:33:37.694Z,101534.66
2023-05-04T12:36:06.209Z,101539.03
2023-05-04T12:38:34.027Z,101525.59
2023-05-04T12:41:04.386Z,101522.06
2023-05-04T12:43:32.236Z,101521.22
2023-05-04T12:45:59.895Z,101528.28
2023-05-04T12:48:29.189Z,101514.84
2023-05-04T12:50:56.572Z,101517.53
2023-05-04T12:53:27.867Z,101517.53
2023-05-04T12:55:55.813Z,101511.28
2023-05-04T12:58:23.185Z,101510.31
2023-05-04T13:00:50.773Z,101509.47
2023-05-04T13:03:18.742Z,101506.78
2023-05-04T13:05:47.516Z,101504.09
2023-05-04T13:08:14.760Z,101503.13
2023-05-04T13:10:41.996Z,101501.41
2023-05-04T13:13:09.316Z,101495.06
2023-05-04T13:15:36.622Z,101484.31
2023-05-04T13:18:04.084Z,101493.22
2023-05-04T13:20:31.627Z,101481.63
2023-05-04T13:22:59.010Z,101484.31
2023-05-04T13:25:27.076Z,101486.00
2023-05-04T13:27:55.309Z,101473.53
2023-05-04T13:30:22.803Z,101469.88
2023-05-04T13:32:50.345Z,101460.94
2023-05-04T13:35:17.710Z,101459.00
2023-05-04T13:37:44.969Z,101450.06
2023-05-04T13:40:12.892Z,101451.88
2023-05-04T13:42:40.155Z,101454.56
2023-05-04T13:45:08.372Z,101448.25
2023-05-04T13:47:40.000Z,101444.69
2023-05-04T13:50:08.270Z,101436.59
2023-05-04T13:52:36.954Z,101436.59
2023-05-04T13:55:05.001Z,101433.91
2023-05-04T13:57:32.879Z,101437.50
2023-05-04T14:00:06.341Z,101435.66
2023-05-04T14:02:41.084Z,101432.97
2023-05-04T14:05:09.185Z,101432.09
2023-05-04T14:07:36.806Z,101428.44
2023-05-04T14:10:04.828Z,101430.16
2023-05-04T14:12:32.190Z,101425.75
2023-05-04T14:14:59.638Z,101428.44
2023-05-04T14:17:27.239Z,101423.94
2023-05-04T14:19:54.603Z,101428.44
2023-05-04T14:22:21.846Z,101424.78
2023-05-04T14:24:50.001Z,101418.56
2023-05-04T14:27:17.645Z,101414.03
2023-05-04T14:29:47.626Z,101415.72
2023-05-04T14:32:15.552Z,101407.78
2023-05-04T14:34:42.849Z,101402.41
2023-05-04T14:37:10.136Z,101402.41
2023-05-04T14:39:37.497Z,101393.34
2023-05-04T14:42:04.845Z,101396.06
2023-05-04T14:44:32.101Z,101394.22
2023-05-04T14:46:59.475Z,101388.81
2023-05-04T14:49:36.795Z,101387.97
2023-05-04T14:52:05.082Z,101389.69
2023-05-04T14:54:32.678Z,101384.31
2023-05-04T14:57:00.298Z,101387.00
2023-05-04T14:59:27.778Z,101372.69
2023-05-04T15:01:55.775Z,101387.84
2023-05-04T15:04:23.246Z,101378.91
2023-05-04T15:06:52.294Z,101369.16
2023-05-04T15:09:19.805Z,101373.53
2023-05-04T15:11:47.338Z,101380.75
2023-05-04T15:14:15.165Z,101388.81
2023-05-04T15:16:42.567Z,101378.06
2023-05-04T15:19:09.986Z,101376.22
2023-05-04T15:21:37.332Z,101369.00
2023-05-04T15:24:05.273Z,101369.00
2023-05-04T15:26:34.457Z,101368.16
2023-05-04T15:29:01.858Z,101367.16
2023-05-04T15:31:29.226Z,101353.72
2023-05-04T15:33:56.566Z,101359.09
2023-05-04T15:36:24.468Z,101353.88
2023-05-04T15:38:52.050Z,101351.03
2023-05-04T15:41:19.262Z,101359.97
2023-05-04T15:43:46.557Z,101359.97
2023-05-04T15:46:13.887Z,101358.16
2023-05-04T15:48:41.190Z,101358.16
2023-05-04T15:51:11.940Z,101357.16
2023-05-04T15:53:39.620Z,101357.16
2023-05-04T15:56:08.061Z,101348.25
2023-05-04T15:58:35.439Z,101349.09
2023-05-04T16:01:04.075Z,101348.94
2023-05-04T16:03:32.278Z,101350.94
2023-05-04T16:05:59.773Z,101349.19
2023-05-04T16:08:27.333Z,101347.25
2023-05-04T16:10:55.785Z,101347.38
2023-05-04T16:13:23.292Z,101345.53
2023-05-04T16:15:51.665Z,101341.03
2023-05-04T16:18:19.960Z,101337.47
2023-05-04T16:20:48.158Z,101331.09
2023-05-04T16:23:17.225Z,101345.53
2023-05-04T16:25:44.676Z,101335.63
2023-05-04T16:28:12.234Z,101341.03
2023-05-04T16:30:42.271Z,101333.94
2023-05-04T16:33:09.801Z,101340.16
2023-05-04T16:35:37.841Z,101339.19
2023-05-04T16:38:05.138Z,101340.16
2023-05-04T16:40:32.893Z,101341.88
2023-05-04T16:43:00.482Z,101342.72
2023-05-04T16:45:31.334Z,101334.66
2023-05-04T16:47:58.918Z,101340.03
2023-05-04T16:50:26.373Z,101330.97
2023-05-04T16:52:53.778Z,101340.03
2023-05-04T16:55:21.589Z,101335.50
2023-05-04T16:57:49.269Z,101338.19
2023-05-04T17:00:17.110Z,101330.13
2023-05-04T17:02:46.558Z,101329.13
2023-05-04T17:05:14.008Z,101333.66
2023-05-04T17:07:43.323Z,101332.81
2023-05-04T17:10:11.576Z,101336.34
2023-05-04T17:12:39.280Z,101333.66
2023-05-04T17:15:07.262Z,101339.03
2023-05-04T17:17:34.587Z,101338.19
2023-05-04T17:20:02.516Z,101338.19
2023-05-04T17:22:29.936Z,101333.66
2023-05-04T17:24:57.174Z,101340.78
2023-05-04T17:27:24.447Z,101327.44
2023-05-04T17:29:51.631Z,101341.72
2023-05-04T17:32:18.957Z,101340.88
2023-05-04T17:34:46.211Z,101342.72
2023-05-04T17:37:13.468Z,101352.50
2023-05-04T17:39:40.778Z,101344.41
2023-05-04T17:42:08.225Z,101347.09
2023-05-04T17:44:35.542Z,101346.25
2023-05-04T17:47:02.883Z,101351.63
2023-05-04T17:49:30.247Z,101351.53
2023-05-04T17:51:57.653Z,101349.69
2023-05-04T17:54:25.094Z,101352.38
2023-05-04T17:56:52.396Z,101359.59
2023-05-04T17:59:19.956Z,101349.81
2023-05-04T18:01:47.427Z,101357.88
2023-05-04T18:04:14.683Z,101365.09
2023-05-04T18:06:42.032Z,101357.03
2023-05-04T18:09:09.393Z,101366.94
2023-05-04T18:11:36.654Z,101368.63
2023-05-04T18:14:03.903Z,101371.31
2023-05-04T18:16:35.993Z,101379.38
2023-05-04T18:19:03.417Z,101378.53
2023-05-04T18:21:30.725Z,101374.84
2023-05-04T18:23:57.895Z,101374.00
2023-05-04T18:26:25.211Z,101372.31
2023-05-04T18:28:52.607Z,101376.69
2023-05-04T18:31:20.042Z,101375.00
2023-05-04T18:33:47.427Z,101377.69
2023-05-04T18:36:14.743Z,101380.25
2023-05-04T18:38:41.985Z,101375.75
2023-05-04T18:41:10.655Z,101387.22
2023-05-04T18:43:37.894Z,101384.53
2023-05-04T18:46:08.861Z,101393.59
2023-05-04T18:48:36.154Z,101406.03
2023-05-04T18:51:03.726Z,101409.47
2023-05-04T18:53:31.034Z,101406.78
2023-05-04T18:56:08.826Z,101414.72
2023-05-04T18:58:37.037Z,101417.41
2023-05-04T19:01:04.869Z,101417.28
2023-05-04T19:03:32.965Z,101424.50
2023-05-04T19:06:00.454Z,101428.88
2023-05-04T19:08:27.852Z,101426.09
2023-05-04T19:11:00.385Z,101429.78
2023-05-04T19:13:27.658Z,101436.00
2023-05-04T19:15:55.154Z,101443.94
2023-05-04T19:18:23.357Z,101435.72
2023-05-04T19:20:50.960Z,101429.50
2023-05-04T19:23:18.330Z,101436.59
2023-05-04T19:25:45.637Z,101438.31
2023-05-04T19:28:13.354Z,101440.16
2023-05-04T19:30:41.637Z,101447.38
2023-05-04T19:33:09.076Z,101447.22
2023-05-04T19:35:37.279Z,101455.16
2023-05-04T19:38:07.495Z,101458.00
2023-05-04T19:40:34.893Z,101451.63
2023-05-04T19:43:02.403Z,101456.16
2023-05-04T19:45:29.732Z,101461.53
2023-05-04T19:47:57.596Z,101462.38
2023-05-04T19:50:25.201Z,101465.06
2023-05-04T19:52:52.649Z,101467.66
2023-05-04T19:55:20.057Z,101457.84
2023-05-04T19:57:49.824Z,101468.50
2023-05-04T20:00:20.367Z,101470.34
2023-05-04T20:02:47.764Z,101474.84
2023-05-04T20:05:15.172Z,101472.16
2023-05-04T20:07:42.747Z,101470.34
2023-05-04T20:10:10.267Z,101489.06
2023-05-04T20:12:37.608Z,101477.44
2023-05-04T20:15:06.368Z,101479.28
2023-05-04T20:17:33.819Z,101485.50
2023-05-04T20:20:03.665Z,101483.81
2023-05-04T20:22:30.972Z,101492.72
2023-05-04T20:25:01.655Z,101493.59
2023-05-04T20:27:29.040Z,101497.25
2023-05-04T20:29:56.431Z,101493.59
2023-05-04T20:32:23.661Z,101503.34
2023-05-04T20:34:53.973Z,101497.25
2023-05-04T20:37:21.200Z,101505.19
2023-05-04T20:39:51.828Z,101498.97
2023-05-04T20:42:19.154Z,101505.19
2023-05-04T20:44:46.565Z,101498.97
2023-05-04T20:47:13.969Z,101493.59
2023-05-04T20:49:41.370Z,101497.13
2023-05-04T20:52:08.651Z,101494.28
2023-05-04T20:54:35.978Z,101498.81
2023-05-04T20:57:03.425Z,101495.28
2023-05-04T20:59:30.754Z,101504.22
2023-05-04T21:01:58.040Z,101502.38
2023-05-04T21:04:25.737Z,101502.38
2023-05-04T21:06:53.211Z,101504.09
2023-05-04T21:09:21.527Z,101503.97
2023-05-04T21:11:48.846Z,101500.28
2023-05-04T21:14:16.541Z,101498.44
2023-05-04T21:16:43.838Z,101502.00
2023-05-04T21:19:11.053Z,101502.00
2023-05-04T21:21:40.974Z,101492.22
2023-05-04T21:24:13.097Z,101494.06
2023-05-04T21:26:41.444Z,101485.13
2023-05-04T21:29:13.067Z,101490.50
2023-05-04T21:31:41.297Z,101487.81
2023-05-04T21:34:08.853Z,101485.97
2023-05-04T21:36:36.400Z,101490.50
2023-05-04T21:39:03.707Z,101490.50
2023-05-04T21:41:31.081Z,101486.97
2023-05-04T21:43:58.379Z,101500.41
2023-05-04T21:46:25.767Z,101495.88
2023-05-04T21:48:53.065Z,101495.03
2023-05-04T21:51:21.063Z,101492.34
2023-05-04T21:53:48.399Z,101494.19
2023-05-04T21:56:15.723Z,101495.03
2023-05-04T21:58:43.364Z,101495.03
2023-05-04T22:01:15.678Z,101488.81
2023-05-04T22:03:43.785Z,101495.03
2023-05-04T22:06:11.168Z,101496.88
2023-05-04T22:08:38.529Z,101499.56
2023-05-04T22:11:06.367Z,101499.56
2023-05-04T22:13:33.700Z,101500.41
2023-05-04T22:16:00.963Z,101503.22
2023-05-04T22:18:28.252Z,101504.94
2023-05-04T22:20:57.032Z,101503.13
2023-05-04T22:23:24.504Z,101498.72
2023-05-04T22:25:51.766Z,101501.41
2023-05-04T22:28:19.126Z,101507.50
2023-05-04T22:30:46.415Z,101495.88
2023-05-04T22:33:13.683Z,101495.03
2023-05-04T22:35:41.043Z,101500.41
2023-05-04T22:38:08.437Z,101502.25
2023-05-04T22:40:39.858Z,101511.19
2023-05-04T22:43:07.792Z,101508.59
2023-05-04T22:45:39.020Z,101514.88
2023-05-04T22:48:06.357Z,101518.50
2023-05-04T22:50:36.659Z,101518.50
2023-05-04T22:53:04.020Z,101524.88
2023-05-04T22:55:31.355Z,101522.31
2023-05-04T22:57:58.725Z,101520.50
2023-05-04T23:00:26.254Z,101516.94
2023-05-04T23:02:54.057Z,101517.91
2023-05-04T23:05:21.426Z,101512.53
2023-05-04T23:07:50.491Z,101518.88
2023-05-04T23:10:18.341Z,101501.03
2023-05-04T23:12:46.050Z,101514.34
2023-05-04T23:15:14.146Z,101511.66
2023-05-04T23:17:41.484Z,101506.56
2023-05-04T23:20:10.100Z,101514.34
2023-05-04T23:22:37.672Z,101508.25
2023-05-04T23:25:05.277Z,101507.41
2023-05-04T23:27:32.549Z,101510.09
2023-05-04T23:29:59.854Z,101510.97
2023-05-04T23:32:27.170Z,101503.00
2023-05-04T23:34:54.544Z,101506.56
2023-05-04T23:37:21.810Z,101511.06
2023-05-04T23:39:49.049Z,101519.13
2023-05-04T23:42:16.355Z,101522.72
2023-05-04T23:44:43.605Z,101519.13
2023-05-04T23:47:11.207Z,101520.00
2023-05-04T23:49:38.564Z,101504.81
2023-05-04T23:52:06.073Z,101503.13
2023-05-04T23:54:33.609Z,101497.75
2023-05-04T23:57:00.829Z,101495.06
2023-05-04T23:59:28.143Z,101496.03
